sensor_id;sensor_type;location;lat;lon;timestamp;temperature;humidity
43089;DHT22;28709;52.030;5.652;2023-07-24T00:01:31;18.70;99.90
43089;DHT22;28709;52.030;5.652;2023-07-24T00:03:56;18.70;99.90
43089;DHT22;28709;52.030;5.652;2023-07-24T00:06:22;18.70;99.90
43089;DHT22;28709;52.030;5.652;2023-07-24T00:08:47;18.70;99.90
43089;DHT22;28709;52.030;5.652;2023-07-24T00:11:13;18.60;99.90
43089;DHT22;28709;52.030;5.652;2023-07-24T00:13:39;18.60;99.90
43089;DHT22;28709;52.030;5.652;2023-07-24T00:16:08;18.60;99.90
43089;DHT22;28709;52.030;5.652;2023-07-24T00:18:34;18.60;99.90
43089;DHT22;28709;52.030;5.652;2023-07-24T00:21:00;18.60;99.90
43089;DHT22;28709;52.030;5.652;2023-07-24T00:23:25;18.60;99.90
43089;DHT22;28709;52.030;5.652;2023-07-24T00:25:51;18.60;99.90
43089;DHT22;28709;52.030;5.652;2023-07-24T00:28:16;18.60;99.90
43089;DHT22;28709;52.030;5.652;2023-07-24T00:30:42;18.60;99.90
43089;DHT22;28709;52.030;5.652;2023-07-24T00:33:08;18.50;99.90
43089;DHT22;28709;52.030;5.652;2023-07-24T00:35:34;18.50;99.90
43089;DHT22;28709;52.030;5.652;2023-07-24T00:38:00;18.50;99.90
43089;DHT22;28709;52.030;5.652;2023-07-24T00:40:25;18.50;99.90
43089;DHT22;28709;52.030;5.652;2023-07-24T00:42:51;18.50;99.90
43089;DHT22;28709;52.030;5.652;2023-07-24T00:45:17;18.50;99.90
43089;DHT22;28709;52.030;5.652;2023-07-24T00:47:43;18.60;99.90
43089;DHT22;28709;52.030;5.652;2023-07-24T00:50:09;18.50;99.90
43089;DHT22;28709;52.030;5.652;2023-07-24T00:52:37;18.60;99.90
43089;DHT22;28709;52.030;5.652;2023-07-24T00:55:03;18.60;99.90
43089;DHT22;28709;52.030;5.652;2023-07-24T00:57:28;18.50;99.90
43089;DHT22;28709;52.030;5.652;2023-07-24T00:59:54;18.50;99.90
43089;DHT22;28709;52.030;5.652;2023-07-24T01:02:20;18.50;99.90
43089;DHT22;28709;52.030;5.652;2023-07-24T01:04:46;18.60;99.90
43089;DHT22;28709;52.030;5.652;2023-07-24T01:07:12;18.50;99.90
43089;DHT22;28709;52.030;5.652;2023-07-24T01:09:38;18.50;99.90
43089;DHT22;28709;52.030;5.652;2023-07-24T01:12:24;18.50;99.90
43089;DHT22;28709;52.030;5.652;2023-07-24T01:17:57;18.50;99.90
43089;DHT22;28709;52.030;5.652;2023-07-24T01:20:27;18.50;99.90
43089;DHT22;28709;52.030;5.652;2023-07-24T01:25:58;18.50;99.90
43089;DHT22;28709;52.030;5.652;2023-07-24T01:28:27;18.50;99.90
43089;DHT22;28709;52.030;5.652;2023-07-24T01:30:54;18.50;99.90
43089;DHT22;28709;52.030;5.652;2023-07-24T01:33:20;18.50;99.90
43089;DHT22;28709;52.030;5.652;2023-07-24T01:35:50;18.50;99.90
43089;DHT22;28709;52.030;5.652;2023-07-24T01:38:18;18.50;99.90
43089;DHT22;28709;52.030;5.652;2023-07-24T01:40:45;18.50;99.90
43089;DHT22;28709;52.030;5.652;2023-07-24T01:43:11;18.50;99.90
43089;DHT22;28709;52.030;5.652;2023-07-24T01:45:36;18.40;99.90
43089;DHT22;28709;52.030;5.652;2023-07-24T01:48:04;18.40;99.90
43089;DHT22;28709;52.030;5.652;2023-07-24T01:50:31;18.50;99.90
43089;DHT22;28709;52.030;5.652;2023-07-24T01:52:56;18.50;99.90
43089;DHT22;28709;52.030;5.652;2023-07-24T01:55:22;18.50;99.90
43089;DHT22;28709;52.030;5.652;2023-07-24T01:57:48;18.50;99.90
43089;DHT22;28709;52.030;5.652;2023-07-24T02:00:13;18.50;99.90
43089;DHT22;28709;52.030;5.652;2023-07-24T02:02:39;18.40;99.90
43089;DHT22;28709;52.030;5.652;2023-07-24T02:05:05;18.40;99.90
43089;DHT22;28709;52.030;5.652;2023-07-24T02:07:30;18.40;99.90
43089;DHT22;28709;52.030;5.652;2023-07-24T02:09:56;18.40;99.90
43089;DHT22;28709;52.030;5.652;2023-07-24T02:12:22;18.30;99.90
43089;DHT22;28709;52.030;5.652;2023-07-24T02:14:48;18.30;99.90
43089;DHT22;28709;52.030;5.652;2023-07-24T02:17:15;18.30;99.90
43089;DHT22;28709;52.030;5.652;2023-07-24T02:19:41;18.30;99.90
43089;DHT22;28709;52.030;5.652;2023-07-24T02:22:07;18.20;99.90
43089;DHT22;28709;52.030;5.652;2023-07-24T02:24:33;18.20;99.90
43089;DHT22;28709;52.030;5.652;2023-07-24T02:26:58;18.20;99.90
43089;DHT22;28709;52.030;5.652;2023-07-24T02:29:24;18.20;99.90
43089;DHT22;28709;52.030;5.652;2023-07-24T02:31:50;18.20;99.90
43089;DHT22;28709;52.030;5.652;2023-07-24T02:34:16;18.20;99.90
43089;DHT22;28709;52.030;5.652;2023-07-24T02:36:42;18.20;99.90
43089;DHT22;28709;52.030;5.652;2023-07-24T02:39:07;18.10;99.90
43089;DHT22;28709;52.030;5.652;2023-07-24T02:41:33;18.10;99.90
43089;DHT22;28709;52.030;5.652;2023-07-24T02:43:59;18.20;99.90
43089;DHT22;28709;52.030;5.652;2023-07-24T02:46:24;18.10;99.90
43089;DHT22;28709;52.030;5.652;2023-07-24T02:48:53;18.20;99.90
43089;DHT22;28709;52.030;5.652;2023-07-24T02:51:19;18.20;99.90
43089;DHT22;28709;52.030;5.652;2023-07-24T02:53:45;18.20;99.90
43089;DHT22;28709;52.030;5.652;2023-07-24T02:56:10;18.20;99.90
43089;DHT22;28709;52.030;5.652;2023-07-24T02:58:36;18.20;99.90
43089;DHT22;28709;52.030;5.652;2023-07-24T03:01:06;18.20;99.90
43089;DHT22;28709;52.030;5.652;2023-07-24T03:03:33;18.20;99.90
43089;DHT22;28709;52.030;5.652;2023-07-24T03:05:58;18.30;99.90
43089;DHT22;28709;52.030;5.652;2023-07-24T03:08:24;18.30;99.90
43089;DHT22;28709;52.030;5.652;2023-07-24T03:10:50;18.30;99.90
43089;DHT22;28709;52.030;5.652;2023-07-24T03:13:15;18.30;99.90
43089;DHT22;28709;52.030;5.652;2023-07-24T03:15:41;18.30;99.90
43089;DHT22;28709;52.030;5.652;2023-07-24T03:18:07;18.30;99.90
43089;DHT22;28709;52.030;5.652;2023-07-24T03:20:32;18.30;99.90
43089;DHT22;28709;52.030;5.652;2023-07-24T03:22:58;18.30;99.90
43089;DHT22;28709;52.030;5.652;2023-07-24T03:25:24;18.30;99.90
43089;DHT22;28709;52.030;5.652;2023-07-24T03:27:49;18.30;99.90
43089;DHT22;28709;52.030;5.652;2023-07-24T03:30:15;18.20;99.90
43089;DHT22;28709;52.030;5.652;2023-07-24T03:32:40;18.20;99.90
43089;DHT22;28709;52.030;5.652;2023-07-24T03:35:06;18.20;99.90
43089;DHT22;28709;52.030;5.652;2023-07-24T03:37:34;18.20;99.90
43089;DHT22;28709;52.030;5.652;2023-07-24T03:40:00;18.20;99.90
43089;DHT22;28709;52.030;5.652;2023-07-24T03:42:30;18.20;99.90
43089;DHT22;28709;52.030;5.652;2023-07-24T03:44:57;18.20;99.90
43089;DHT22;28709;52.030;5.652;2023-07-24T03:47:23;18.20;99.90
43089;DHT22;28709;52.030;5.652;2023-07-24T03:49:50;18.20;99.90
43089;DHT22;28709;52.030;5.652;2023-07-24T03:52:16;18.10;99.90
43089;DHT22;28709;52.030;5.652;2023-07-24T03:54:41;18.20;99.90
43089;DHT22;28709;52.030;5.652;2023-07-24T03:57:07;18.10;99.90
43089;DHT22;28709;52.030;5.652;2023-07-24T03:59:33;18.10;99.90
43089;DHT22;28709;52.030;5.652;2023-07-24T04:01:59;18.10;99.90
43089;DHT22;28709;52.030;5.652;2023-07-24T04:04:24;18.10;99.90
43089;DHT22;28709;52.030;5.652;2023-07-24T04:06:50;18.10;99.90
43089;DHT22;28709;52.030;5.652;2023-07-24T04:09:16;18.00;99.90
43089;DHT22;28709;52.030;5.652;2023-07-24T04:11:43;18.00;99.90
43089;DHT22;28709;52.030;5.652;2023-07-24T04:14:09;18.00;99.90
43089;DHT22;28709;52.030;5.652;2023-07-24T04:16:35;18.00;99.90
43089;DHT22;28709;52.030;5.652;2023-07-24T04:19:01;18.00;99.90
43089;DHT22;28709;52.030;5.652;2023-07-24T04:21:26;18.00;99.90
43089;DHT22;28709;52.030;5.652;2023-07-24T04:23:52;18.00;99.90
43089;DHT22;28709;52.030;5.652;2023-07-24T04:26:18;17.90;99.90
43089;DHT22;28709;52.030;5.652;2023-07-24T04:28:43;17.90;99.90
43089;DHT22;28709;52.030;5.652;2023-07-24T04:31:09;17.90;99.90
43089;DHT22;28709;52.030;5.652;2023-07-24T04:33:34;17.90;99.90
43089;DHT22;28709;52.030;5.652;2023-07-24T04:36:00;17.90;99.90
43089;DHT22;28709;52.030;5.652;2023-07-24T04:38:26;17.80;99.90
43089;DHT22;28709;52.030;5.652;2023-07-24T04:40:51;17.90;99.90
43089;DHT22;28709;52.030;5.652;2023-07-24T04:43:17;17.90;99.90
43089;DHT22;28709;52.030;5.652;2023-07-24T04:45:42;17.80;99.90
43089;DHT22;28709;52.030;5.652;2023-07-24T04:48:08;17.80;99.90
43089;DHT22;28709;52.030;5.652;2023-07-24T04:50:34;17.80;99.90
43089;DHT22;28709;52.030;5.652;2023-07-24T04:52:59;17.80;99.90
43089;DHT22;28709;52.030;5.652;2023-07-24T04:55:25;17.80;99.90
43089;DHT22;28709;52.030;5.652;2023-07-24T04:57:51;17.80;99.90
43089;DHT22;28709;52.030;5.652;2023-07-24T05:00:16;17.80;99.90
43089;DHT22;28709;52.030;5.652;2023-07-24T05:02:42;17.80;99.90
43089;DHT22;28709;52.030;5.652;2023-07-24T05:05:08;17.80;99.90
43089;DHT22;28709;52.030;5.652;2023-07-24T05:07:34;17.80;99.90
43089;DHT22;28709;52.030;5.652;2023-07-24T05:09:59;17.80;99.90
43089;DHT22;28709;52.030;5.652;2023-07-24T05:12:25;17.80;99.90
43089;DHT22;28709;52.030;5.652;2023-07-24T05:14:51;17.80;99.90
43089;DHT22;28709;52.030;5.652;2023-07-24T05:17:17;17.80;99.90
43089;DHT22;28709;52.030;5.652;2023-07-24T05:19:42;17.70;99.90
43089;DHT22;28709;52.030;5.652;2023-07-24T05:22:08;17.80;99.90
43089;DHT22;28709;52.030;5.652;2023-07-24T05:24:36;17.80;99.90
43089;DHT22;28709;52.030;5.652;2023-07-24T05:27:02;17.80;99.90
43089;DHT22;28709;52.030;5.652;2023-07-24T05:29:28;17.80;99.90
43089;DHT22;28709;52.030;5.652;2023-07-24T05:31:53;17.80;99.90
43089;DHT22;28709;52.030;5.652;2023-07-24T05:34:19;17.80;99.90
43089;DHT22;28709;52.030;5.652;2023-07-24T05:36:44;17.80;99.90
43089;DHT22;28709;52.030;5.652;2023-07-24T05:39:10;17.80;99.90
43089;DHT22;28709;52.030;5.652;2023-07-24T05:41:36;17.80;99.90
43089;DHT22;28709;52.030;5.652;2023-07-24T05:44:01;17.90;99.90
43089;DHT22;28709;52.030;5.652;2023-07-24T05:46:27;17.90;99.90
43089;DHT22;28709;52.030;5.652;2023-07-24T05:48:52;17.90;99.90
43089;DHT22;28709;52.030;5.652;2023-07-24T05:51:18;17.90;99.90
43089;DHT22;28709;52.030;5.652;2023-07-24T05:53:44;17.90;99.90
43089;DHT22;28709;52.030;5.652;2023-07-24T05:56:09;17.90;99.90
43089;DHT22;28709;52.030;5.652;2023-07-24T05:58:35;18.00;99.90
43089;DHT22;28709;52.030;5.652;2023-07-24T06:01:01;18.00;99.90
43089;DHT22;28709;52.030;5.652;2023-07-24T06:03:26;18.00;99.90
43089;DHT22;28709;52.030;5.652;2023-07-24T06:05:55;18.00;99.90
43089;DHT22;28709;52.030;5.652;2023-07-24T06:08:21;18.00;99.90
43089;DHT22;28709;52.030;5.652;2023-07-24T06:10:48;18.00;99.90
43089;DHT22;28709;52.030;5.652;2023-07-24T06:13:15;18.10;99.90
43089;DHT22;28709;52.030;5.652;2023-07-24T06:15:41;18.10;99.90
43089;DHT22;28709;52.030;5.652;2023-07-24T06:18:06;18.10;99.90
43089;DHT22;28709;52.030;5.652;2023-07-24T06:20:32;18.10;99.90
43089;DHT22;28709;52.030;5.652;2023-07-24T06:22:57;18.10;99.90
43089;DHT22;28709;52.030;5.652;2023-07-24T06:25:23;18.10;99.90
43089;DHT22;28709;52.030;5.652;2023-07-24T06:27:49;18.20;99.90
43089;DHT22;28709;52.030;5.652;2023-07-24T06:30:14;18.20;99.90
43089;DHT22;28709;52.030;5.652;2023-07-24T06:32:40;18.20;99.90
43089;DHT22;28709;52.030;5.652;2023-07-24T06:35:06;18.20;99.90
43089;DHT22;28709;52.030;5.652;2023-07-24T06:37:31;18.30;99.90
43089;DHT22;28709;52.030;5.652;2023-07-24T06:39:57;18.40;99.90
43089;DHT22;28709;52.030;5.652;2023-07-24T06:42:22;18.60;99.90
43089;DHT22;28709;52.030;5.652;2023-07-24T06:44:48;18.70;99.90
43089;DHT22;28709;52.030;5.652;2023-07-24T06:47:14;18.80;99.90
43089;DHT22;28709;52.030;5.652;2023-07-24T06:49:39;18.80;99.90
43089;DHT22;28709;52.030;5.652;2023-07-24T06:52:05;18.80;99.90
43089;DHT22;28709;52.030;5.652;2023-07-24T06:54:31;18.70;99.90
43089;DHT22;28709;52.030;5.652;2023-07-24T06:56:57;18.70;99.90
43089;DHT22;28709;52.030;5.652;2023-07-24T06:59:24;18.70;99.90
43089;DHT22;28709;52.030;5.652;2023-07-24T07:01:49;18.80;99.90
43089;DHT22;28709;52.030;5.652;2023-07-24T07:04:16;18.80;99.90
43089;DHT22;28709;52.030;5.652;2023-07-24T07:06:41;18.80;99.90
43089;DHT22;28709;52.030;5.652;2023-07-24T07:09:07;18.90;99.90
43089;DHT22;28709;52.030;5.652;2023-07-24T07:11:33;18.90;99.90
43089;DHT22;28709;52.030;5.652;2023-07-24T07:13:58;19.00;99.90
43089;DHT22;28709;52.030;5.652;2023-07-24T07:16:24;19.00;99.90
43089;DHT22;28709;52.030;5.652;2023-07-24T07:18:49;19.00;99.90
43089;DHT22;28709;52.030;5.652;2023-07-24T07:21:15;19.10;99.90
43089;DHT22;28709;52.030;5.652;2023-07-24T07:23:41;19.20;99.90
43089;DHT22;28709;52.030;5.652;2023-07-24T07:26:06;19.30;99.90
43089;DHT22;28709;52.030;5.652;2023-07-24T07:28:32;19.40;99.90
43089;DHT22;28709;52.030;5.652;2023-07-24T07:30:58;19.50;99.90
43089;DHT22;28709;52.030;5.652;2023-07-24T07:33:23;19.60;99.90
43089;DHT22;28709;52.030;5.652;2023-07-24T07:35:50;19.60;99.90
43089;DHT22;28709;52.030;5.652;2023-07-24T07:38:15;19.70;99.90
43089;DHT22;28709;52.030;5.652;2023-07-24T07:40:41;19.90;99.90
43089;DHT22;28709;52.030;5.652;2023-07-24T07:43:07;20.10;99.90
43089;DHT22;28709;52.030;5.652;2023-07-24T07:45:33;20.20;99.90
43089;DHT22;28709;52.030;5.652;2023-07-24T07:47:59;20.30;99.90
43089;DHT22;28709;52.030;5.652;2023-07-24T07:50:24;20.30;99.90
43089;DHT22;28709;52.030;5.652;2023-07-24T07:52:51;20.40;99.90
43089;DHT22;28709;52.030;5.652;2023-07-24T07:55:18;20.20;99.90
43089;DHT22;28709;52.030;5.652;2023-07-24T07:57:44;20.10;99.90
43089;DHT22;28709;52.030;5.652;2023-07-24T08:00:10;19.90;99.90
43089;DHT22;28709;52.030;5.652;2023-07-24T08:02:36;19.70;99.90
43089;DHT22;28709;52.030;5.652;2023-07-24T08:05:09;19.50;99.90
43089;DHT22;28709;52.030;5.652;2023-07-24T08:07:34;19.40;99.90
43089;DHT22;28709;52.030;5.652;2023-07-24T08:10:00;19.40;99.90
43089;DHT22;28709;52.030;5.652;2023-07-24T08:12:26;19.40;99.90
43089;DHT22;28709;52.030;5.652;2023-07-24T08:14:51;19.40;99.90
43089;DHT22;28709;52.030;5.652;2023-07-24T08:17:17;19.50;99.90
43089;DHT22;28709;52.030;5.652;2023-07-24T08:19:42;19.70;99.90
43089;DHT22;28709;52.030;5.652;2023-07-24T08:22:08;19.80;99.90
43089;DHT22;28709;52.030;5.652;2023-07-24T08:24:35;20.00;99.90
43089;DHT22;28709;52.030;5.652;2023-07-24T08:27:01;20.20;99.90
43089;DHT22;28709;52.030;5.652;2023-07-24T08:29:27;20.30;99.90
43089;DHT22;28709;52.030;5.652;2023-07-24T08:31:52;20.30;99.90
43089;DHT22;28709;52.030;5.652;2023-07-24T08:34:18;20.30;99.90
43089;DHT22;28709;52.030;5.652;2023-07-24T08:36:43;20.30;99.90
43089;DHT22;28709;52.030;5.652;2023-07-24T08:39:09;20.30;99.90
43089;DHT22;28709;52.030;5.652;2023-07-24T08:41:36;20.20;99.90
43089;DHT22;28709;52.030;5.652;2023-07-24T08:44:09;20.20;99.90
43089;DHT22;28709;52.030;5.652;2023-07-24T08:46:36;20.30;99.90
43089;DHT22;28709;52.030;5.652;2023-07-24T08:49:03;20.40;99.90
43089;DHT22;28709;52.030;5.652;2023-07-24T08:51:31;20.50;99.90
43089;DHT22;28709;52.030;5.652;2023-07-24T08:53:59;20.60;99.90
43089;DHT22;28709;52.030;5.652;2023-07-24T08:56:26;20.60;99.90
43089;DHT22;28709;52.030;5.652;2023-07-24T08:58:52;20.60;99.90
43089;DHT22;28709;52.030;5.652;2023-07-24T09:01:17;20.50;99.90
43089;DHT22;28709;52.030;5.652;2023-07-24T09:03:43;20.50;99.90
43089;DHT22;28709;52.030;5.652;2023-07-24T09:06:09;20.50;99.90
43089;DHT22;28709;52.030;5.652;2023-07-24T09:11:02;20.90;99.90
43089;DHT22;28709;52.030;5.652;2023-07-24T09:13:28;21.00;99.90
43089;DHT22;28709;52.030;5.652;2023-07-24T09:15:54;21.10;99.90
43089;DHT22;28709;52.030;5.652;2023-07-24T09:18:21;21.40;99.90
43089;DHT22;28709;52.030;5.652;2023-07-24T09:20:47;21.50;99.90
43089;DHT22;28709;52.030;5.652;2023-07-24T09:23:14;21.70;99.90
43089;DHT22;28709;52.030;5.652;2023-07-24T09:25:41;21.80;99.90
43089;DHT22;28709;52.030;5.652;2023-07-24T09:28:16;21.80;99.90
43089;DHT22;28709;52.030;5.652;2023-07-24T09:30:42;21.80;99.90
43089;DHT22;28709;52.030;5.652;2023-07-24T09:33:16;21.70;99.90
43089;DHT22;28709;52.030;5.652;2023-07-24T09:35:42;21.60;99.90
43089;DHT22;28709;52.030;5.652;2023-07-24T09:38:09;21.70;99.90
43089;DHT22;28709;52.030;5.652;2023-07-24T09:40:45;21.90;99.90
43089;DHT22;28709;52.030;5.652;2023-07-24T09:43:38;22.00;99.90
43089;DHT22;28709;52.030;5.652;2023-07-24T09:46:07;21.90;99.90
43089;DHT22;28709;52.030;5.652;2023-07-24T09:48:33;21.80;99.90
43089;DHT22;28709;52.030;5.652;2023-07-24T09:51:00;21.60;99.90
43089;DHT22;28709;52.030;5.652;2023-07-24T09:53:39;21.50;99.90
43089;DHT22;28709;52.030;5.652;2023-07-24T09:56:08;21.30;99.90
43089;DHT22;28709;52.030;5.652;2023-07-24T09:58:36;21.30;99.90
43089;DHT22;28709;52.030;5.652;2023-07-24T10:01:07;21.20;99.90
43089;DHT22;28709;52.030;5.652;2023-07-24T10:03:39;21.20;99.90
43089;DHT22;28709;52.030;5.652;2023-07-24T10:06:05;21.30;99.90
43089;DHT22;28709;52.030;5.652;2023-07-24T10:08:31;21.40;99.90
43089;DHT22;28709;52.030;5.652;2023-07-24T10:11:00;21.50;99.90
43089;DHT22;28709;52.030;5.652;2023-07-24T10:13:27;21.40;99.90
43089;DHT22;28709;52.030;5.652;2023-07-24T10:15:53;21.30;99.90
43089;DHT22;28709;52.030;5.652;2023-07-24T10:18:28;21.10;99.90
43089;DHT22;28709;52.030;5.652;2023-07-24T10:21:06;21.00;99.90
43089;DHT22;28709;52.030;5.652;2023-07-24T10:23:50;20.90;99.90
43089;DHT22;28709;52.030;5.652;2023-07-24T10:26:15;20.90;99.90
43089;DHT22;28709;52.030;5.652;2023-07-24T10:28:42;21.00;99.90
43089;DHT22;28709;52.030;5.652;2023-07-24T10:31:20;21.00;99.90
43089;DHT22;28709;52.030;5.652;2023-07-24T10:33:46;21.10;99.90
43089;DHT22;28709;52.030;5.652;2023-07-24T10:36:20;21.20;99.90
43089;DHT22;28709;52.030;5.652;2023-07-24T10:38:52;21.30;99.90
43089;DHT22;28709;52.030;5.652;2023-07-24T10:41:18;21.60;99.90
43089;DHT22;28709;52.030;5.652;2023-07-24T10:43:47;21.90;99.90
43089;DHT22;28709;52.030;5.652;2023-07-24T10:46:14;22.10;99.90
43089;DHT22;28709;52.030;5.652;2023-07-24T10:48:47;22.20;99.90
43089;DHT22;28709;52.030;5.652;2023-07-24T10:51:13;22.20;99.90
43089;DHT22;28709;52.030;5.652;2023-07-24T10:53:48;22.10;99.90
43089;DHT22;28709;52.030;5.652;2023-07-24T10:56:13;22.00;99.90
43089;DHT22;28709;52.030;5.652;2023-07-24T10:58:39;22.00;99.90
43089;DHT22;28709;52.030;5.652;2023-07-24T11:01:06;21.90;99.90
43089;DHT22;28709;52.030;5.652;2023-07-24T11:03:32;21.80;99.90
43089;DHT22;28709;52.030;5.652;2023-07-24T11:06:02;21.70;99.90
43089;DHT22;28709;52.030;5.652;2023-07-24T11:08:27;21.70;99.90
43089;DHT22;28709;52.030;5.652;2023-07-24T11:10:55;21.80;99.90
43089;DHT22;28709;52.030;5.652;2023-07-24T11:13:27;21.80;99.90
43089;DHT22;28709;52.030;5.652;2023-07-24T11:15:54;21.90;99.90
43089;DHT22;28709;52.030;5.652;2023-07-24T11:18:20;21.90;99.90
43089;DHT22;28709;52.030;5.652;2023-07-24T11:20:52;21.90;99.90
43089;DHT22;28709;52.030;5.652;2023-07-24T11:23:19;21.90;99.90
43089;DHT22;28709;52.030;5.652;2023-07-24T11:25:45;22.00;99.90
43089;DHT22;28709;52.030;5.652;2023-07-24T11:28:13;22.30;99.90
43089;DHT22;28709;52.030;5.652;2023-07-24T11:30:39;22.70;99.90
43089;DHT22;28709;52.030;5.652;2023-07-24T11:33:09;22.70;99.90
43089;DHT22;28709;52.030;5.652;2023-07-24T11:35:35;23.00;99.90
43089;DHT22;28709;52.030;5.652;2023-07-24T11:38:02;23.40;99.90
43089;DHT22;28709;52.030;5.652;2023-07-24T11:40:46;23.60;99.90
43089;DHT22;28709;52.030;5.652;2023-07-24T11:43:23;23.70;99.90
43089;DHT22;28709;52.030;5.652;2023-07-24T11:45:51;23.60;99.90
43089;DHT22;28709;52.030;5.652;2023-07-24T11:48:24;23.30;99.90
43089;DHT22;28709;52.030;5.652;2023-07-24T11:50:56;23.10;99.90
43089;DHT22;28709;52.030;5.652;2023-07-24T11:53:27;22.90;99.90
43089;DHT22;28709;52.030;5.652;2023-07-24T11:55:55;22.70;99.90
43089;DHT22;28709;52.030;5.652;2023-07-24T11:58:21;22.60;99.90
43089;DHT22;28709;52.030;5.652;2023-07-24T12:00:48;22.50;99.90
43089;DHT22;28709;52.030;5.652;2023-07-24T12:03:18;22.40;99.90
43089;DHT22;28709;52.030;5.652;2023-07-24T12:05:44;22.30;99.90
43089;DHT22;28709;52.030;5.652;2023-07-24T12:08:10;22.10;99.90
43089;DHT22;28709;52.030;5.652;2023-07-24T12:10:38;21.90;99.90
43089;DHT22;28709;52.030;5.652;2023-07-24T12:13:04;21.60;99.90
43089;DHT22;28709;52.030;5.652;2023-07-24T12:15:30;21.30;99.90
43089;DHT22;28709;52.030;5.652;2023-07-24T12:17:56;21.00;99.90
43089;DHT22;28709;52.030;5.652;2023-07-24T12:20:22;20.80;99.90
43089;DHT22;28709;52.030;5.652;2023-07-24T12:22:48;20.60;99.90
43089;DHT22;28709;52.030;5.652;2023-07-24T12:25:14;20.60;99.90
43089;DHT22;28709;52.030;5.652;2023-07-24T12:27:41;20.40;99.90
43089;DHT22;28709;52.030;5.652;2023-07-24T12:30:08;20.40;99.90
43089;DHT22;28709;52.030;5.652;2023-07-24T12:32:34;20.40;99.90
43089;DHT22;28709;52.030;5.652;2023-07-24T12:35:00;20.30;99.90
43089;DHT22;28709;52.030;5.652;2023-07-24T12:37:25;20.20;99.90
43089;DHT22;28709;52.030;5.652;2023-07-24T12:39:51;20.10;99.90
43089;DHT22;28709;52.030;5.652;2023-07-24T12:42:17;20.20;99.90
43089;DHT22;28709;52.030;5.652;2023-07-24T12:44:43;20.30;99.90
43089;DHT22;28709;52.030;5.652;2023-07-24T12:47:10;20.50;99.90
43089;DHT22;28709;52.030;5.652;2023-07-24T12:49:36;20.80;99.90
43089;DHT22;28709;52.030;5.652;2023-07-24T12:52:03;21.10;99.90
43089;DHT22;28709;52.030;5.652;2023-07-24T12:54:29;21.30;99.90
43089;DHT22;28709;52.030;5.652;2023-07-24T12:56:54;21.50;99.90
43089;DHT22;28709;52.030;5.652;2023-07-24T12:59:20;21.70;99.90
43089;DHT22;28709;52.030;5.652;2023-07-24T13:01:46;22.00;99.90
43089;DHT22;28709;52.030;5.652;2023-07-24T13:04:12;22.20;99.90
43089;DHT22;28709;52.030;5.652;2023-07-24T13:06:38;22.40;99.90
43089;DHT22;28709;52.030;5.652;2023-07-24T13:09:04;22.60;99.90
43089;DHT22;28709;52.030;5.652;2023-07-24T13:11:30;22.80;99.90
43089;DHT22;28709;52.030;5.652;2023-07-24T13:13:56;23.10;99.90
43089;DHT22;28709;52.030;5.652;2023-07-24T13:16:22;23.10;99.90
43089;DHT22;28709;52.030;5.652;2023-07-24T13:18:48;23.00;99.90
43089;DHT22;28709;52.030;5.652;2023-07-24T13:21:14;22.80;99.90
43089;DHT22;28709;52.030;5.652;2023-07-24T13:23:43;22.50;99.90
43089;DHT22;28709;52.030;5.652;2023-07-24T13:26:09;22.40;99.90
43089;DHT22;28709;52.030;5.652;2023-07-24T13:28:36;22.20;99.90
43089;DHT22;28709;52.030;5.652;2023-07-24T13:31:21;22.10;99.90
43089;DHT22;28709;52.030;5.652;2023-07-24T13:33:48;22.10;99.90
43089;DHT22;28709;52.030;5.652;2023-07-24T13:36:13;22.20;99.90
43089;DHT22;28709;52.030;5.652;2023-07-24T13:38:40;22.50;99.90
43089;DHT22;28709;52.030;5.652;2023-07-24T13:41:06;22.70;99.90
43089;DHT22;28709;52.030;5.652;2023-07-24T13:43:32;22.80;99.90
43089;DHT22;28709;52.030;5.652;2023-07-24T13:45:58;22.90;99.90
43089;DHT22;28709;52.030;5.652;2023-07-24T13:48:26;22.80;99.90
43089;DHT22;28709;52.030;5.652;2023-07-24T13:50:52;22.90;99.90
43089;DHT22;28709;52.030;5.652;2023-07-24T13:53:18;22.90;99.90
43089;DHT22;28709;52.030;5.652;2023-07-24T13:55:43;22.90;99.90
43089;DHT22;28709;52.030;5.652;2023-07-24T13:58:09;22.90;99.90
43089;DHT22;28709;52.030;5.652;2023-07-24T14:00:34;22.80;99.90
43089;DHT22;28709;52.030;5.652;2023-07-24T14:03:00;22.70;99.90
43089;DHT22;28709;52.030;5.652;2023-07-24T14:05:26;22.60;99.90
43089;DHT22;28709;52.030;5.652;2023-07-24T14:07:51;22.30;99.90
43089;DHT22;28709;52.030;5.652;2023-07-24T14:10:17;22.10;99.90
43089;DHT22;28709;52.030;5.652;2023-07-24T14:12:43;21.90;99.90
43089;DHT22;28709;52.030;5.652;2023-07-24T14:15:09;21.80;99.90
43089;DHT22;28709;52.030;5.652;2023-07-24T14:17:34;21.60;99.90
43089;DHT22;28709;52.030;5.652;2023-07-24T14:20:01;21.50;99.90
43089;DHT22;28709;52.030;5.652;2023-07-24T14:22:27;21.30;99.90
43089;DHT22;28709;52.030;5.652;2023-07-24T14:24:53;21.30;99.90
43089;DHT22;28709;52.030;5.652;2023-07-24T14:27:19;21.20;99.90
43089;DHT22;28709;52.030;5.652;2023-07-24T14:29:44;21.20;99.90
43089;DHT22;28709;52.030;5.652;2023-07-24T14:32:10;21.10;99.90
43089;DHT22;28709;52.030;5.652;2023-07-24T14:34:36;21.10;99.90
43089;DHT22;28709;52.030;5.652;2023-07-24T14:37:01;21.10;99.90
43089;DHT22;28709;52.030;5.652;2023-07-24T14:39:27;21.10;99.90
43089;DHT22;28709;52.030;5.652;2023-07-24T14:41:53;21.00;99.90
43089;DHT22;28709;52.030;5.652;2023-07-24T14:44:18;21.00;99.90
43089;DHT22;28709;52.030;5.652;2023-07-24T14:46:44;21.00;99.90
43089;DHT22;28709;52.030;5.652;2023-07-24T14:49:10;20.90;99.90
43089;DHT22;28709;52.030;5.652;2023-07-24T14:51:35;21.00;99.90
43089;DHT22;28709;52.030;5.652;2023-07-24T14:54:01;20.80;99.90
43089;DHT22;28709;52.030;5.652;2023-07-24T14:56:27;20.60;99.90
43089;DHT22;28709;52.030;5.652;2023-07-24T14:58:52;20.50;99.90
43089;DHT22;28709;52.030;5.652;2023-07-24T15:01:18;20.40;99.90
43089;DHT22;28709;52.030;5.652;2023-07-24T15:03:44;20.30;99.90
43089;DHT22;28709;52.030;5.652;2023-07-24T15:06:09;20.40;99.90
43089;DHT22;28709;52.030;5.652;2023-07-24T15:08:35;20.40;99.90
43089;DHT22;28709;52.030;5.652;2023-07-24T15:11:01;20.30;99.90
43089;DHT22;28709;52.030;5.652;2023-07-24T15:13:27;20.20;99.90
43089;DHT22;28709;52.030;5.652;2023-07-24T15:15:53;20.20;99.90
43089;DHT22;28709;52.030;5.652;2023-07-24T15:18:18;20.10;99.90
43089;DHT22;28709;52.030;5.652;2023-07-24T15:20:44;20.00;99.90
43089;DHT22;28709;52.030;5.652;2023-07-24T15:23:10;20.00;99.90
43089;DHT22;28709;52.030;5.652;2023-07-24T15:25:36;20.00;99.90
43089;DHT22;28709;52.030;5.652;2023-07-24T15:28:02;20.10;99.90
43089;DHT22;28709;52.030;5.652;2023-07-24T15:30:27;20.20;99.90
43089;DHT22;28709;52.030;5.652;2023-07-24T15:32:53;20.30;99.90
43089;DHT22;28709;52.030;5.652;2023-07-24T15:35:19;20.40;99.90